sensor_id;sensor_type;location;lat;lon;timestamp;temperature;humidity
8684;DHT22;4379;59.744;18.206;2024-02-16T00:02:06;1.20;99.90
8684;DHT22;4379;59.744;18.206;2024-02-16T00:04:33;1.20;99.90
8684;DHT22;4379;59.744;18.206;2024-02-16T00:07:00;1.20;99.90
8684;DHT22;4379;59.744;18.206;2024-02-16T00:09:28;1.20;99.90
8684;DHT22;4379;59.744;18.206;2024-02-16T00:11:55;1.20;99.90
8684;DHT22;4379;59.744;18.206;2024-02-16T00:14:22;1.20;99.90
8684;DHT22;4379;59.744;18.206;2024-02-16T00:16:49;1.30;99.90
8684;DHT22;4379;59.744;18.206;2024-02-16T00:19:16;1.30;99.90
8684;DHT22;4379;59.744;18.206;2024-02-16T00:21:43;1.30;99.90
8684;DHT22;4379;59.744;18.206;2024-02-16T00:24:10;1.20;99.90
8684;DHT22;4379;59.744;18.206;2024-02-16T00:26:38;1.30;99.90
8684;DHT22;4379;59.744;18.206;2024-02-16T00:29:06;1.20;99.90
8684;DHT22;4379;59.744;18.206;2024-02-16T00:31:33;1.20;99.90
8684;DHT22;4379;59.744;18.206;2024-02-16T00:34:00;1.20;99.90
8684;DHT22;4379;59.744;18.206;2024-02-16T00:36:28;1.30;99.90
8684;DHT22;4379;59.744;18.206;2024-02-16T00:38:58;1.20;99.90
8684;DHT22;4379;59.744;18.206;2024-02-16T00:41:25;1.20;99.90
8684;DHT22;4379;59.744;18.206;2024-02-16T00:43:53;1.30;99.90
8684;DHT22;4379;59.744;18.206;2024-02-16T00:46:20;1.30;99.90
8684;DHT22;4379;59.744;18.206;2024-02-16T00:48:51;1.30;99.90
8684;DHT22;4379;59.744;18.206;2024-02-16T00:51:18;1.30;99.90
8684;DHT22;4379;59.744;18.206;2024-02-16T00:53:45;1.30;99.90
8684;DHT22;4379;59.744;18.206;2024-02-16T00:56:13;1.30;99.90
8684;DHT22;4379;59.744;18.206;2024-02-16T00:58:40;1.20;99.90
8684;DHT22;4379;59.744;18.206;2024-02-16T01:01:09;1.30;99.90
8684;DHT22;4379;59.744;18.206;2024-02-16T01:03:38;1.30;99.90
8684;DHT22;4379;59.744;18.206;2024-02-16T01:06:06;1.30;99.90
8684;DHT22;4379;59.744;18.206;2024-02-16T01:08:33;1.30;99.90
8684;DHT22;4379;59.744;18.206;2024-02-16T01:11:00;1.30;99.90
8684;DHT22;4379;59.744;18.206;2024-02-16T01:13:27;1.20;99.90
8684;DHT22;4379;59.744;18.206;2024-02-16T01:15:54;1.20;99.90
8684;DHT22;4379;59.744;18.206;2024-02-16T01:18:21;1.20;99.90
8684;DHT22;4379;59.744;18.206;2024-02-16T01:20:48;1.20;99.90
8684;DHT22;4379;59.744;18.206;2024-02-16T01:23:15;1.20;99.90
8684;DHT22;4379;59.744;18.206;2024-02-16T01:25:42;1.20;99.90
8684;DHT22;4379;59.744;18.206;2024-02-16T01:28:10;1.30;99.90
8684;DHT22;4379;59.744;18.206;2024-02-16T01:30:40;1.30;99.90
8684;DHT22;4379;59.744;18.206;2024-02-16T01:33:07;1.30;99.90
8684;DHT22;4379;59.744;18.206;2024-02-16T01:35:34;1.20;99.90
8684;DHT22;4379;59.744;18.206;2024-02-16T01:38:02;1.30;99.90
8684;DHT22;4379;59.744;18.206;2024-02-16T01:40:29;1.30;99.90
8684;DHT22;4379;59.744;18.206;2024-02-16T01:42:56;1.30;99.90
8684;DHT22;4379;59.744;18.206;2024-02-16T01:45:23;1.30;99.90
8684;DHT22;4379;59.744;18.206;2024-02-16T01:47:51;1.40;99.90
8684;DHT22;4379;59.744;18.206;2024-02-16T01:50:20;1.40;99.90
8684;DHT22;4379;59.744;18.206;2024-02-16T01:52:49;1.40;99.90
8684;DHT22;4379;59.744;18.206;2024-02-16T01:55:17;1.40;99.90
8684;DHT22;4379;59.744;18.206;2024-02-16T01:57:45;1.40;99.90
8684;DHT22;4379;59.744;18.206;2024-02-16T02:00:13;1.30;99.90
8684;DHT22;4379;59.744;18.206;2024-02-16T02:02:44;1.30;99.90
8684;DHT22;4379;59.744;18.206;2024-02-16T02:05:13;1.50;99.90
8684;DHT22;4379;59.744;18.206;2024-02-16T02:07:42;1.40;99.90
8684;DHT22;4379;59.744;18.206;2024-02-16T02:10:10;1.50;99.90
8684;DHT22;4379;59.744;18.206;2024-02-16T02:12:42;1.50;99.90
8684;DHT22;4379;59.744;18.206;2024-02-16T02:15:09;1.50;99.90
8684;DHT22;4379;59.744;18.206;2024-02-16T02:17:37;1.50;99.90
8684;DHT22;4379;59.744;18.206;2024-02-16T02:20:06;1.50;99.90
8684;DHT22;4379;59.744;18.206;2024-02-16T02:22:38;1.50;99.90
8684;DHT22;4379;59.744;18.206;2024-02-16T02:25:05;1.50;99.90
8684;DHT22;4379;59.744;18.206;2024-02-16T02:27:32;1.50;99.90
8684;DHT22;4379;59.744;18.206;2024-02-16T02:30:00;1.50;99.90
8684;DHT22;4379;59.744;18.206;2024-02-16T02:32:27;1.50;99.90
8684;DHT22;4379;59.744;18.206;2024-02-16T02:34:55;1.50;99.90
8684;DHT22;4379;59.744;18.206;2024-02-16T02:37:22;1.50;99.90
8684;DHT22;4379;59.744;18.206;2024-02-16T02:39:49;1.50;99.90
8684;DHT22;4379;59.744;18.206;2024-02-16T02:42:16;1.50;99.90
8684;DHT22;4379;59.744;18.206;2024-02-16T02:44:43;1.50;99.90
8684;DHT22;4379;59.744;18.206;2024-02-16T02:47:16;1.50;99.90
8684;DHT22;4379;59.744;18.206;2024-02-16T02:49:44;1.50;99.90
8684;DHT22;4379;59.744;18.206;2024-02-16T02:52:11;1.50;99.90
8684;DHT22;4379;59.744;18.206;2024-02-16T02:54:38;1.50;99.90
8684;DHT22;4379;59.744;18.206;2024-02-16T02:57:07;1.50;99.90
8684;DHT22;4379;59.744;18.206;2024-02-16T02:59:34;1.50;99.90
8684;DHT22;4379;59.744;18.206;2024-02-16T03:02:01;1.50;99.90
8684;DHT22;4379;59.744;18.206;2024-02-16T03:04:28;1.50;99.90
8684;DHT22;4379;59.744;18.206;2024-02-16T03:06:55;1.50;99.90
8684;DHT22;4379;59.744;18.206;2024-02-16T03:09:22;1.50;99.90
8684;DHT22;4379;59.744;18.206;2024-02-16T03:11:49;1.60;99.90
8684;DHT22;4379;59.744;18.206;2024-02-16T03:14:19;1.60;99.90
8684;DHT22;4379;59.744;18.206;2024-02-16T03:16:46;1.50;99.90
8684;DHT22;4379;59.744;18.206;2024-02-16T03:19:13;1.60;99.90
8684;DHT22;4379;59.744;18.206;2024-02-16T03:21:41;1.50;99.90
8684;DHT22;4379;59.744;18.206;2024-02-16T03:24:08;1.60;99.90
8684;DHT22;4379;59.744;18.206;2024-02-16T03:26:35;1.50;99.90
8684;DHT22;4379;59.744;18.206;2024-02-16T03:29:02;1.60;99.90
8684;DHT22;4379;59.744;18.206;2024-02-16T03:31:29;1.60;99.90
8684;DHT22;4379;59.744;18.206;2024-02-16T03:33:56;1.60;99.90
8684;DHT22;4379;59.744;18.206;2024-02-16T03:36:24;1.60;99.90
8684;DHT22;4379;59.744;18.206;2024-02-16T03:38:52;1.70;99.90
8684;DHT22;4379;59.744;18.206;2024-02-16T03:41:21;1.60;99.90
8684;DHT22;4379;59.744;18.206;2024-02-16T03:43:48;1.60;99.90
8684;DHT22;4379;59.744;18.206;2024-02-16T03:46:16;1.60;99.90
8684;DHT22;4379;59.744;18.206;2024-02-16T03:48:43;1.60;99.90
8684;DHT22;4379;59.744;18.206;2024-02-16T03:51:11;1.60;99.90
8684;DHT22;4379;59.744;18.206;2024-02-16T03:53:39;1.60;99.90
8684;DHT22;4379;59.744;18.206;2024-02-16T03:56:06;1.60;99.90
8684;DHT22;4379;59.744;18.206;2024-02-16T03:58:36;1.60;99.90
8684;DHT22;4379;59.744;18.206;2024-02-16T04:01:04;1.60;99.90
8684;DHT22;4379;59.744;18.206;2024-02-16T04:03:34;1.60;99.90
8684;DHT22;4379;59.744;18.206;2024-02-16T04:06:02;1.60;99.90
8684;DHT22;4379;59.744;18.206;2024-02-16T04:08:31;1.60;99.90
8684;DHT22;4379;59.744;18.206;2024-02-16T04:10:58;1.60;99.90
8684;DHT22;4379;59.744;18.206;2024-02-16T04:13:25;1.60;99.90
8684;DHT22;4379;59.744;18.206;2024-02-16T04:15:53;1.60;99.90
8684;DHT22;4379;59.744;18.206;2024-02-16T04:18:21;1.50;99.90
8684;DHT22;4379;59.744;18.206;2024-02-16T04:20:48;1.60;99.90
8684;DHT22;4379;59.744;18.206;2024-02-16T04:23:15;1.60;99.90
8684;DHT22;4379;59.744;18.206;2024-02-16T04:25:42;1.60;99.90
8684;DHT22;4379;59.744;18.206;2024-02-16T04:28:09;1.50;99.90
8684;DHT22;4379;59.744;18.206;2024-02-16T04:30:36;1.60;99.90
8684;DHT22;4379;59.744;18.206;2024-02-16T04:33:04;1.60;99.90
8684;DHT22;4379;59.744;18.206;2024-02-16T04:35:31;1.60;99.90
8684;DHT22;4379;59.744;18.206;2024-02-16T04:37:58;1.60;99.90
8684;DHT22;4379;59.744;18.206;2024-02-16T04:40:25;1.60;99.90
8684;DHT22;4379;59.744;18.206;2024-02-16T04:42:53;1.70;99.90
8684;DHT22;4379;59.744;18.206;2024-02-16T04:45:20;1.70;99.90
8684;DHT22;4379;59.744;18.206;2024-02-16T04:47:47;1.60;99.90
8684;DHT22;4379;59.744;18.206;2024-02-16T04:50:15;1.60;99.90
8684;DHT22;4379;59.744;18.206;2024-02-16T04:52:42;1.70;99.90
8684;DHT22;4379;59.744;18.206;2024-02-16T04:55:10;1.60;99.90
8684;DHT22;4379;59.744;18.206;2024-02-16T04:57:37;1.60;99.90
8684;DHT22;4379;59.744;18.206;2024-02-16T05:00:05;1.60;99.90
8684;DHT22;4379;59.744;18.206;2024-02-16T05:02:32;1.60;99.90
8684;DHT22;4379;59.744;18.206;2024-02-16T05:04:59;1.70;99.90
8684;DHT22;4379;59.744;18.206;2024-02-16T05:07:30;1.80;99.90
8684;DHT22;4379;59.744;18.206;2024-02-16T05:09:58;1.70;99.90
8684;DHT22;4379;59.744;18.206;2024-02-16T05:12:26;1.80;99.90
8684;DHT22;4379;59.744;18.206;2024-02-16T05:14:54;1.70;99.90
8684;DHT22;4379;59.744;18.206;2024-02-16T05:17:21;1.70;99.90
8684;DHT22;4379;59.744;18.206;2024-02-16T05:19:51;1.80;99.90
8684;DHT22;4379;59.744;18.206;2024-02-16T05:22:18;1.80;99.90
8684;DHT22;4379;59.744;18.206;2024-02-16T05:24:46;1.70;99.90
8684;DHT22;4379;59.744;18.206;2024-02-16T05:27:13;1.70;99.90
8684;DHT22;4379;59.744;18.206;2024-02-16T05:29:41;1.80;99.90
8684;DHT22;4379;59.744;18.206;2024-02-16T05:32:08;1.80;99.90
8684;DHT22;4379;59.744;18.206;2024-02-16T05:34:37;1.80;99.90
8684;DHT22;4379;59.744;18.206;2024-02-16T05:37:05;1.80;99.90
8684;DHT22;4379;59.744;18.206;2024-02-16T05:39:36;1.80;99.90
8684;DHT22;4379;59.744;18.206;2024-02-16T05:42:20;1.80;99.90
8684;DHT22;4379;59.744;18.206;2024-02-16T05:44:50;1.80;99.90
8684;DHT22;4379;59.744;18.206;2024-02-16T05:47:18;1.90;99.90
8684;DHT22;4379;59.744;18.206;2024-02-16T05:49:46;1.90;99.90
8684;DHT22;4379;59.744;18.206;2024-02-16T05:52:13;1.80;99.90
8684;DHT22;4379;59.744;18.206;2024-02-16T05:54:47;1.90;99.90
8684;DHT22;4379;59.744;18.206;2024-02-16T05:57:16;1.90;99.90
8684;DHT22;4379;59.744;18.206;2024-02-16T05:59:44;1.90;99.90
8684;DHT22;4379;59.744;18.206;2024-02-16T06:02:12;1.80;99.90
8684;DHT22;4379;59.744;18.206;2024-02-16T06:07:54;1.90;99.90
8684;DHT22;4379;59.744;18.206;2024-02-16T06:10:23;1.80;99.90
8684;DHT22;4379;59.744;18.206;2024-02-16T06:12:50;1.90;99.90
8684;DHT22;4379;59.744;18.206;2024-02-16T06:15:17;1.90;99.90
8684;DHT22;4379;59.744;18.206;2024-02-16T06:17:44;1.90;99.90
8684;DHT22;4379;59.744;18.206;2024-02-16T06:20:11;1.90;99.90
8684;DHT22;4379;59.744;18.206;2024-02-16T06:22:38;1.90;99.90
8684;DHT22;4379;59.744;18.206;2024-02-16T06:25:06;1.90;99.90
8684;DHT22;4379;59.744;18.206;2024-02-16T06:27:33;2.00;99.90
8684;DHT22;4379;59.744;18.206;2024-02-16T06:30:00;2.00;99.90
8684;DHT22;4379;59.744;18.206;2024-02-16T06:32:28;1.90;99.90
8684;DHT22;4379;59.744;18.206;2024-02-16T06:34:55;1.90;99.90
8684;DHT22;4379;59.744;18.206;2024-02-16T06:37:22;2.00;99.90
8684;DHT22;4379;59.744;18.206;2024-02-16T06:39:49;2.00;99.90
8684;DHT22;4379;59.744;18.206;2024-02-16T06:42:16;2.00;99.90
8684;DHT22;4379;59.744;18.206;2024-02-16T06:44:43;2.10;99.90
8684;DHT22;4379;59.744;18.206;2024-02-16T06:47:10;2.00;99.90
8684;DHT22;4379;59.744;18.206;2024-02-16T06:49:38;2.00;99.90
8684;DHT22;4379;59.744;18.206;2024-02-16T06:52:05;2.00;99.90
8684;DHT22;4379;59.744;18.206;2024-02-16T06:54:35;2.00;99.90
8684;DHT22;4379;59.744;18.206;2024-02-16T06:57:02;2.00;99.90
8684;DHT22;4379;59.744;18.206;2024-02-16T06:59:29;2.10;99.90
8684;DHT22;4379;59.744;18.206;2024-02-16T07:01:56;2.10;99.90
8684;DHT22;4379;59.744;18.206;2024-02-16T07:04:23;2.10;99.90
8684;DHT22;4379;59.744;18.206;2024-02-16T07:06:50;2.10;99.90
8684;DHT22;4379;59.744;18.206;2024-02-16T07:09:18;2.20;99.90
8684;DHT22;4379;59.744;18.206;2024-02-16T07:11:45;2.20;99.90
8684;DHT22;4379;59.744;18.206;2024-02-16T07:14:18;2.20;99.90
8684;DHT22;4379;59.744;18.206;2024-02-16T07:16:45;2.20;99.90
8684;DHT22;4379;59.744;18.206;2024-02-16T07:19:12;2.20;99.90
8684;DHT22;4379;59.744;18.206;2024-02-16T07:21:39;2.20;99.90
8684;DHT22;4379;59.744;18.206;2024-02-16T07:24:06;2.30;99.90
8684;DHT22;4379;59.744;18.206;2024-02-16T07:26:34;2.30;99.90
8684;DHT22;4379;59.744;18.206;2024-02-16T07:29:00;2.30;99.90
8684;DHT22;4379;59.744;18.206;2024-02-16T07:31:33;2.30;99.90
8684;DHT22;4379;59.744;18.206;2024-02-16T07:34:01;2.30;99.90
8684;DHT22;4379;59.744;18.206;2024-02-16T07:36:29;2.30;99.90
8684;DHT22;4379;59.744;18.206;2024-02-16T07:38:57;2.30;99.90
8684;DHT22;4379;59.744;18.206;2024-02-16T07:41:25;2.30;99.90
8684;DHT22;4379;59.744;18.206;2024-02-16T07:43:52;2.30;99.90
8684;DHT22;4379;59.744;18.206;2024-02-16T07:46:19;2.30;99.90
8684;DHT22;4379;59.744;18.206;2024-02-16T07:48:46;2.40;99.90
8684;DHT22;4379;59.744;18.206;2024-02-16T07:51:13;2.40;99.90
8684;DHT22;4379;59.744;18.206;2024-02-16T07:53:40;2.40;99.90
8684;DHT22;4379;59.744;18.206;2024-02-16T07:56:08;2.50;99.90
8684;DHT22;4379;59.744;18.206;2024-02-16T07:58:36;2.50;99.90
8684;DHT22;4379;59.744;18.206;2024-02-16T08:01:03;2.60;99.90
8684;DHT22;4379;59.744;18.206;2024-02-16T08:03:30;2.60;99.90
8684;DHT22;4379;59.744;18.206;2024-02-16T08:05:57;2.60;99.90
8684;DHT22;4379;59.744;18.206;2024-02-16T08:08:25;2.60;99.90
8684;DHT22;4379;59.744;18.206;2024-02-16T08:10:52;2.70;99.90
8684;DHT22;4379;59.744;18.206;2024-02-16T08:13:19;2.70;99.90
8684;DHT22;4379;59.744;18.206;2024-02-16T08:15:47;2.80;99.90
8684;DHT22;4379;59.744;18.206;2024-02-16T08:18:14;2.80;99.90
8684;DHT22;4379;59.744;18.206;2024-02-16T08:20:43;2.90;99.90
8684;DHT22;4379;59.744;18.206;2024-02-16T08:23:10;2.90;99.90
8684;DHT22;4379;59.744;18.206;2024-02-16T08:25:37;2.90;99.90
8684;DHT22;4379;59.744;18.206;2024-02-16T08:28:04;2.90;99.90
8684;DHT22;4379;59.744;18.206;2024-02-16T08:30:31;2.90;99.90
8684;DHT22;4379;59.744;18.206;2024-02-16T08:33:00;2.90;99.90
8684;DHT22;4379;59.744;18.206;2024-02-16T08:35:27;2.90;99.90
8684;DHT22;4379;59.744;18.206;2024-02-16T08:37:54;2.90;99.90
8684;DHT22;4379;59.744;18.206;2024-02-16T08:40:21;2.90;99.90
8684;DHT22;4379;59.744;18.206;2024-02-16T08:42:48;2.90;99.90
8684;DHT22;4379;59.744;18.206;2024-02-16T08:45:15;2.90;99.90
8684;DHT22;4379;59.744;18.206;2024-02-16T08:47:44;3.00;99.90
8684;DHT22;4379;59.744;18.206;2024-02-16T08:50:13;3.00;99.90
8684;DHT22;4379;59.744;18.206;2024-02-16T08:52:40;3.00;99.90
8684;DHT22;4379;59.744;18.206;2024-02-16T08:55:08;3.00;99.90
8684;DHT22;4379;59.744;18.206;2024-02-16T08:57:35;3.00;99.90
8684;DHT22;4379;59.744;18.206;2024-02-16T09:00:02;3.10;99.90
8684;DHT22;4379;59.744;18.206;2024-02-16T09:02:30;3.10;99.90
8684;DHT22;4379;59.744;18.206;2024-02-16T09:04:57;3.10;99.90
8684;DHT22;4379;59.744;18.206;2024-02-16T09:07:24;3.20;99.90
8684;DHT22;4379;59.744;18.206;2024-02-16T09:09:53;3.20;99.90
8684;DHT22;4379;59.744;18.206;2024-02-16T09:12:20;3.20;99.90
8684;DHT22;4379;59.744;18.206;2024-02-16T09:14:47;3.30;99.90
8684;DHT22;4379;59.744;18.206;2024-02-16T09:17:14;3.30;99.90
8684;DHT22;4379;59.744;18.206;2024-02-16T09:19:41;3.40;99.90
8684;DHT22;4379;59.744;18.206;2024-02-16T09:22:08;3.40;99.90
8684;DHT22;4379;59.744;18.206;2024-02-16T09:24:35;3.40;99.90
8684;DHT22;4379;59.744;18.206;2024-02-16T09:27:04;3.30;99.90
8684;DHT22;4379;59.744;18.206;2024-02-16T09:29:31;3.40;99.90
8684;DHT22;4379;59.744;18.206;2024-02-16T09:31:59;3.50;99.90
8684;DHT22;4379;59.744;18.206;2024-02-16T09:34:27;3.50;99.90
8684;DHT22;4379;59.744;18.206;2024-02-16T09:36:54;3.50;99.90
8684;DHT22;4379;59.744;18.206;2024-02-16T09:39:21;3.60;99.90
8684;DHT22;4379;59.744;18.206;2024-02-16T09:41:51;3.60;99.90
8684;DHT22;4379;59.744;18.206;2024-02-16T09:44:21;3.60;99.90
8684;DHT22;4379;59.744;18.206;2024-02-16T09:46:53;3.60;99.90
8684;DHT22;4379;59.744;18.206;2024-02-16T09:49:21;3.70;99.90
8684;DHT22;4379;59.744;18.206;2024-02-16T09:52:03;3.70;99.90
8684;DHT22;4379;59.744;18.206;2024-02-16T09:54:32;3.70;99.90
8684;DHT22;4379;59.744;18.206;2024-02-16T09:57:03;3.60;99.90
8684;DHT22;4379;59.744;18.206;2024-02-16T09:59:31;3.80;99.90
8684;DHT22;4379;59.744;18.206;2024-02-16T10:02:02;3.80;99.90
8684;DHT22;4379;59.744;18.206;2024-02-16T10:04:30;3.90;99.90
8684;DHT22;4379;59.744;18.206;2024-02-16T10:07:03;4.00;99.90
8684;DHT22;4379;59.744;18.206;2024-02-16T10:09:38;4.00;99.90
8684;DHT22;4379;59.744;18.206;2024-02-16T10:12:07;4.00;99.90
8684;DHT22;4379;59.744;18.206;2024-02-16T10:14:35;4.10;99.90
8684;DHT22;4379;59.744;18.206;2024-02-16T10:17:03;4.00;99.90
8684;DHT22;4379;59.744;18.206;2024-02-16T10:19:31;4.10;99.90
8684;DHT22;4379;59.744;18.206;2024-02-16T10:22:12;4.00;99.90
8684;DHT22;4379;59.744;18.206;2024-02-16T10:24:40;4.00;99.90
8684;DHT22;4379;59.744;18.206;2024-02-16T10:27:18;4.10;99.90
8684;DHT22;4379;59.744;18.206;2024-02-16T10:29:53;4.10;99.90
8684;DHT22;4379;59.744;18.206;2024-02-16T10:32:21;4.10;99.90
8684;DHT22;4379;59.744;18.206;2024-02-16T10:34:51;4.00;99.90
8684;DHT22;4379;59.744;18.206;2024-02-16T10:37:18;4.10;99.90
8684;DHT22;4379;59.744;18.206;2024-02-16T10:39:46;4.10;99.90
8684;DHT22;4379;59.744;18.206;2024-02-16T10:42:14;4.10;99.90
8684;DHT22;4379;59.744;18.206;2024-02-16T10:44:43;4.10;99.90
8684;DHT22;4379;59.744;18.206;2024-02-16T10:47:10;4.00;99.90
8684;DHT22;4379;59.744;18.206;2024-02-16T10:49:37;4.00;99.90
8684;DHT22;4379;59.744;18.206;2024-02-16T10:52:05;3.90;99.90
8684;DHT22;4379;59.744;18.206;2024-02-16T10:54:34;4.00;99.90
8684;DHT22;4379;59.744;18.206;2024-02-16T10:57:02;4.00;99.90
8684;DHT22;4379;59.744;18.206;2024-02-16T10:59:46;4.10;99.90
8684;DHT22;4379;59.744;18.206;2024-02-16T11:02:14;4.10;99.90
8684;DHT22;4379;59.744;18.206;2024-02-16T11:04:46;4.20;99.90
8684;DHT22;4379;59.744;18.206;2024-02-16T11:07:17;4.10;99.90
8684;DHT22;4379;59.744;18.206;2024-02-16T11:09:46;4.20;99.90
8684;DHT22;4379;59.744;18.206;2024-02-16T11:12:14;4.20;99.90
8684;DHT22;4379;59.744;18.206;2024-02-16T11:14:48;4.10;99.90
8684;DHT22;4379;59.744;18.206;2024-02-16T11:17:21;4.20;99.90
8684;DHT22;4379;59.744;18.206;2024-02-16T11:19:49;4.20;99.90
8684;DHT22;4379;59.744;18.206;2024-02-16T11:22:18;4.20;99.90
8684;DHT22;4379;59.744;18.206;2024-02-16T11:24:47;4.30;99.90
8684;DHT22;4379;59.744;18.206;2024-02-16T11:27:16;4.20;99.90
8684;DHT22;4379;59.744;18.206;2024-02-16T11:29:47;4.30;99.90
8684;DHT22;4379;59.744;18.206;2024-02-16T11:32:15;4.30;99.90
8684;DHT22;4379;59.744;18.206;2024-02-16T11:34:42;4.30;99.90
8684;DHT22;4379;59.744;18.206;2024-02-16T11:37:13;4.30;99.90
8684;DHT22;4379;59.744;18.206;2024-02-16T11:39:41;4.30;99.90
8684;DHT22;4379;59.744;18.206;2024-02-16T11:42:13;4.30;99.90
8684;DHT22;4379;59.744;18.206;2024-02-16T11:44:53;4.30;99.90
8684;DHT22;4379;59.744;18.206;2024-02-16T11:47:24;4.40;99.90
8684;DHT22;4379;59.744;18.206;2024-02-16T11:50:08;4.50;99.90
8684;DHT22;4379;59.744;18.206;2024-02-16T11:52:39;4.50;99.90
8684;DHT22;4379;59.744;18.206;2024-02-16T11:55:10;4.60;99.90
8684;DHT22;4379;59.744;18.206;2024-02-16T11:57:39;4.60;99.90
8684;DHT22;4379;59.744;18.206;2024-02-16T12:00:06;4.60;99.90
8684;DHT22;4379;59.744;18.206;2024-02-16T12:02:36;4.70;99.90
8684;DHT22;4379;59.744;18.206;2024-02-16T12:05:04;4.70;99.90
8684;DHT22;4379;59.744;18.206;2024-02-16T12:07:32;4.60;99.90
8684;DHT22;4379;59.744;18.206;2024-02-16T12:10:03;4.70;99.90
8684;DHT22;4379;59.744;18.206;2024-02-16T12:12:33;4.60;99.90
8684;DHT22;4379;59.744;18.206;2024-02-16T12:15:01;4.50;99.90
8684;DHT22;4379;59.744;18.206;2024-02-16T12:17:29;4.50;99.90
8684;DHT22;4379;59.744;18.206;2024-02-16T12:19:56;4.50;99.90
8684;DHT22;4379;59.744;18.206;2024-02-16T12:22:23;4.50;99.90
8684;DHT22;4379;59.744;18.206;2024-02-16T12:24:52;4.50;99.90
8684;DHT22;4379;59.744;18.206;2024-02-16T12:27:19;4.40;99.90
8684;DHT22;4379;59.744;18.206;2024-02-16T12:29:46;4.50;99.90
8684;DHT22;4379;59.744;18.206;2024-02-16T12:32:13;4.50;99.90
8684;DHT22;4379;59.744;18.206;2024-02-16T12:34:46;4.60;99.90
8684;DHT22;4379;59.744;18.206;2024-02-16T12:37:14;4.60;99.90
8684;DHT22;4379;59.744;18.206;2024-02-16T12:39:41;4.60;99.90
8684;DHT22;4379;59.744;18.206;2024-02-16T12:42:08;4.70;99.90
8684;DHT22;4379;59.744;18.206;2024-02-16T12:44:35;4.60;99.90
8684;DHT22;4379;59.744;18.206;2024-02-16T12:47:02;4.60;99.90
8684;DHT22;4379;59.744;18.206;2024-02-16T12:49:30;4.70;99.90
8684;DHT22;4379;59.744;18.206;2024-02-16T12:51:57;4.80;99.90
8684;DHT22;4379;59.744;18.206;2024-02-16T12:54:24;4.80;99.90
8684;DHT22;4379;59.744;18.206;2024-02-16T12:56:52;4.80;99.90
8684;DHT22;4379;59.744;18.206;2024-02-16T12:59:20;4.80;99.90
8684;DHT22;4379;59.744;18.206;2024-02-16T13:01:47;4.70;99.90
8684;DHT22;4379;59.744;18.206;2024-02-16T13:04:14;4.70;99.90
8684;DHT22;4379;59.744;18.206;2024-02-16T13:06:49;4.70;99.90
8684;DHT22;4379;59.744;18.206;2024-02-16T13:09:17;4.70;99.90
8684;DHT22;4379;59.744;18.206;2024-02-16T13:11:44;4.70;99.90
8684;DHT22;4379;59.744;18.206;2024-02-16T13:14:11;4.70;99.90
8684;DHT22;4379;59.744;18.206;2024-02-16T13:16:38;4.70;99.90
8684;DHT22;4379;59.744;18.206;2024-02-16T13:19:05;4.70;99.90
8684;DHT22;4379;59.744;18.206;2024-02-16T13:21:32;4.60;99.90
8684;DHT22;4379;59.744;18.206;2024-02-16T13:23:59;4.70;99.90
8684;DHT22;4379;59.744;18.206;2024-02-16T13:26:27;4.60;99.90
8684;DHT22;4379;59.744;18.206;2024-02-16T13:28:55;4.60;99.90
8684;DHT22;4379;59.744;18.206;2024-02-16T13:31:22;4.70;99.90
8684;DHT22;4379;59.744;18.206;2024-02-16T13:33:52;4.60;99.90
8684;DHT22;4379;59.744;18.206;2024-02-16T13:36:20;4.50;99.90
8684;DHT22;4379;59.744;18.206;2024-02-16T13:38:47;4.60;99.90
8684;DHT22;4379;59.744;18.206;2024-02-16T13:41:14;4.60;99.90
8684;DHT22;4379;59.744;18.206;2024-02-16T13:43:46;4.60;99.90
8684;DHT22;4379;59.744;18.206;2024-02-16T13:46:13;4.70;99.90
8684;DHT22;4379;59.744;18.206;2024-02-16T13:48:41;4.60;99.90
8684;DHT22;4379;59.744;18.206;2024-02-16T13:51:09;4.70;99.90
8684;DHT22;4379;59.744;18.206;2024-02-16T13:53:36;4.70;99.90
8684;DHT22;4379;59.744;18.206;2024-02-16T13:56:04;4.70;99.90
8684;DHT22;4379;59.744;18.206;2024-02-16T13:58:32;4.60;99.90
8684;DHT22;4379;59.744;18.206;2024-02-16T14:01:02;4.50;99.90
8684;DHT22;4379;59.744;18.206;2024-02-16T14:03:31;4.50;99.90
8684;DHT22;4379;59.744;18.206;2024-02-16T14:05:59;4.50;99.90
8684;DHT22;4379;59.744;18.206;2024-02-16T14:08:27;4.50;99.90
8684;DHT22;4379;59.744;18.206;2024-02-16T14:10:54;4.50;99.90
8684;DHT22;4379;59.744;18.206;2024-02-16T14:13:21;4.50;99.90
8684;DHT22;4379;59.744;18.206;2024-02-16T14:15:48;4.60;99.90
8684;DHT22;4379;59.744;18.206;2024-02-16T14:18:16;4.50;99.90
8684;DHT22;4379;59.744;18.206;2024-02-16T14:20:56;4.50;99.90
8684;DHT22;4379;59.744;18.206;2024-02-16T14:23:23;4.60;99.90
8684;DHT22;4379;59.744;18.206;2024-02-16T14:25:51;4.60;99.90
8684;DHT22;4379;59.744;18.206;2024-02-16T14:28:18;4.60;99.90
8684;DHT22;4379;59.744;18.206;2024-02-16T14:30:45;4.60;99.90
8684;DHT22;4379;59.744;18.206;2024-02-16T14:33:12;4.50;99.90
8684;DHT22;4379;59.744;18.206;2024-02-16T14:35:39;4.60;99.90
8684;DHT22;4379;59.744;18.206;2024-02-16T14:38:06;4.50;99.90
8684;DHT22;4379;59.744;18.206;2024-02-16T14:40:33;4.40;99.90
8684;DHT22;4379;59.744;18.206;2024-02-16T14:43:01;4.50;99.90
8684;DHT22;4379;59.744;18.206;2024-02-16T14:45:28;4.50;99.90
8684;DHT22;4379;59.744;18.206;2024-02-16T14:47:55;4.50;99.90
8684;DHT22;4379;59.744;18.206;2024-02-16T14:50:23;4.50;99.90
8684;DHT22;4379;59.744;18.206;2024-02-16T14:52:50;4.50;99.90
8684;DHT22;4379;59.744;18.206;2024-02-16T14:55:17;4.50;99.90
8684;DHT22;4379;59.744;18.206;2024-02-16T14:57:44;4.60;99.90
8684;DHT22;4379;59.744;18.206;2024-02-16T15:00:12;4.60;99.90
8684;DHT22;4379;59.744;18.206;2024-02-16T15:02:40;4.70;99.90
8684;DHT22;4379;59.744;18.206;2024-02-16T15:05:10;4.70;99.90
8684;DHT22;4379;59.744;18.206;2024-02-16T15:07:37;4.70;99.90
8684;DHT22;4379;59.744;18.206;2024-02-16T15:10:04;4.70;99.90
8684;DHT22;4379;59.744;18.206;2024-02-16T15:12:32;4.70;99.90
8684;DHT22;4379;59.744;18.206;2024-02-16T15:14:59;4.70;99.90
8684;DHT22;4379;59.744;18.206;2024-02-16T15:17:27;4.70;99.90
8684;DHT22;4379;59.744;18.206;2024-02-16T15:19:54;4.70;99.90
8684;DHT22;4379;59.744;18.206;2024-02-16T15:22:21;4.80;99.90
8684;DHT22;4379;59.744;18.206;2024-02-16T15:24:49;4.80;99.90
8684;DHT22;4379;59.744;18.206;2024-02-16T15:27:17;4.80;99.90
8684;DHT22;4379;59.744;18.206;2024-02-16T15:29:44;4.80;99.90
8684;DHT22;4379;59.744;18.206;2024-02-16T15:32:12;4.70;99.90
8684;DHT22;4379;59.744;18.206;2024-02-16T15:34:39;4.70;99.90
8684;DHT22;4379;59.744;18.206;2024-02-16T15:37:10;4.70;99.90
8684;DHT22;4379;59.744;18.206;2024-02-16T15:39:38;4.70;99.90
8684;DHT22;4379;59.744;18.206;2024-02-16T15:42:05;4.70;99.90
8684;DHT22;4379;59.744;18.206;2024-02-16T15:44:34;4.60;99.90
8684;DHT22;4379;59.744;18.206;2024-02-16T15:47:02;4.60;99.90
8684;DHT22;4379;59.744;18.206;2024-02-16T15:49:29;4.60;99.90
8684;DHT22;4379;59.744;18.206;2024-02-16T15:51:56;4.70;99.90
8684;DHT22;4379;59.744;18.206;2024-02-16T15:54:23;4.70;99.90
8684;DHT22;4379;59.744;18.206;2024-02-16T15:56:53;4.70;99.90
8684;DHT22;4379;59.744;18.206;2024-02-16T15:59:24;4.70;99.90
8684;DHT22;4379;59.744;18.206;2024-02-16T16:01:52;4.70;99.90
8684;DHT22;4379;59.744;18.206;2024-02-16T16:04:19;4.60;99.90
8684;DHT22;4379;59.744;18.206;2024-02-16T16:06:46;4.60;99.90
8684;DHT22;4379;59.744;18.206;2024-02-16T16:09:14;4.70;99.90
8684;DHT22;4379;59.744;18.206;2024-02-16T16:11:43;4.60;99.90